Time;durP1;ratioP1;P1;durP2;ratioP2;P2;SDS_P1;SDS_P2;PMS_P1;PMS_P2;Temp;Humidity;BMP_temperature;BMP_pressure;BME280_temperature;BME280_humidity;BME280_pressure;Samples;Min_cycle;Max_cycle;Signal;HPM_P1;HPM_P2
2021/01/01 00:02:20;;;;;;;35.97;32.10;;;;;;;;;;5095753;28;20805;-78
2021/01/01 00:04:46;;;;;;;37.17;33.13;;;;;;;;;;5081674;28;20402;-78
2021/01/01 00:07:12;;;;;;;40.60;36.20;;;;;;;;;;5082984;28;20840;-79
2021/01/01 00:09:38;;;;;;;38.13;33.63;;;;;;;;;;5075267;28;20515;-80
2021/01/01 00:12:05;;;;;;;41.35;36.85;;;;;;;;;;5078414;28;20840;-79
2021/01/01 00:14:31;;;;;;;50.08;42.60;;;;;;;;;;5078338;28;20436;-81
2021/01/01 00:16:57;;;;;;;44.10;37.33;;;;;;;;;;5101041;28;20404;-80
2021/01/01 00:19:23;;;;;;;61.33;51.00;;;;;;;;;;5059517;28;20470;-79
2021/01/01 00:21:49;;;;;;;54.58;47.75;;;;;;;;;;5088982;28;20433;-81
2021/01/01 00:24:15;;;;;;;63.17;51.25;;;;;;;;;;5072114;28;20926;-78
2021/01/01 00:26:42;;;;;;;55.55;46.60;;;;;;;;;;5096521;28;20384;-80
2021/01/01 00:29:08;;;;;;;56.85;47.88;;;;;;;;;;5073140;28;20379;-80
2021/01/01 00:31:34;;;;;;;58.63;49.97;;;;;;;;;;5074158;28;20374;-79
2021/01/01 00:34:00;;;;;;;70.35;57.72;;;;;;;;;;5073559;28;20862;-80
2021/01/01 00:36:26;;;;;;;84.55;72.22;;;;;;;;;;5095889;28;20376;-79
2021/01/01 00:38:53;;;;;;;121.35;98.10;;;;;;;;;;5073346;28;20383;-78
2021/01/01 00:41:49;;;;;;;114.28;96.55;;;;;;;;;;5074795;28;20874;-80
2021/01/01 00:44:17;;;;;;;135.77;115.85;;;;;;;;;;5088854;28;20400;-79
2021/01/01 00:46:43;;;;;;;150.18;122.40;;;;;;;;;;5072948;28;20432;-79
2021/01/01 00:49:09;;;;;;;163.40;130.43;;;;;;;;;;5072005;28;20383;-78
2021/01/01 00:51:35;;;;;;;165.20;130.95;;;;;;;;;;5089492;28;20383;-80
2021/01/01 00:54:02;;;;;;;170.65;135.60;;;;;;;;;;5073282;28;20400;-78
2021/01/01 00:56:29;;;;;;;167.18;132.77;;;;;;;;;;5090897;28;20395;-79
2021/01/01 00:58:55;;;;;;;156.27;127.43;;;;;;;;;;5073518;28;20479;-77
2021/01/01 01:01:23;;;;;;;176.57;139.55;;;;;;;;;;5072197;28;20804;-78
2021/01/01 01:03:49;;;;;;;153.88;127.47;;;;;;;;;;5071737;28;20487;-78
2021/01/01 01:06:15;;;;;;;189.15;146.65;;;;;;;;;;5073711;28;20403;-80
2021/01/01 01:08:42;;;;;;;170.07;136.27;;;;;;;;;;5054874;28;20381;-79
2021/01/01 01:11:08;;;;;;;159.30;131.05;;;;;;;;;;5070637;28;20382;-78
2021/01/01 01:13:34;;;;;;;167.33;134.57;;;;;;;;;;5073271;28;20447;-77
2021/01/01 01:16:02;;;;;;;181.40;142.60;;;;;;;;;;5092069;28;20353;-78
2021/01/01 01:18:28;;;;;;;152.27;128.05;;;;;;;;;;5064977;28;20378;-78
2021/01/01 01:20:54;;;;;;;177.05;140.48;;;;;;;;;;5054383;28;20460;-77
2021/01/01 01:23:20;;;;;;;148.63;124.50;;;;;;;;;;5082160;28;21155;-77
2021/01/01 01:25:46;;;;;;;139.77;118.67;;;;;;;;;;5088085;28;20364;-78
2021/01/01 01:28:12;;;;;;;159.43;128.98;;;;;;;;;;5073416;28;20381;-78
2021/01/01 01:30:39;;;;;;;154.50;121.72;;;;;;;;;;5073071;28;20379;-77
2021/01/01 01:33:05;;;;;;;140.27;114.70;;;;;;;;;;5072933;28;20407;-78
2021/01/01 01:35:31;;;;;;;135.73;110.80;;;;;;;;;;5072993;28;20380;-77
2021/01/01 01:37:57;;;;;;;134.57;112.22;;;;;;;;;;5090893;28;20361;-77
2021/01/01 01:40:23;;;;;;;138.98;112.53;;;;;;;;;;5090581;28;20368;-76
2021/01/01 01:42:49;;;;;;;118.45;100.72;;;;;;;;;;5090746;28;20384;-80
2021/01/01 01:45:15;;;;;;;116.78;97.68;;;;;;;;;;5072672;28;20490;-78
2021/01/01 01:47:41;;;;;;;104.07;87.32;;;;;;;;;;5072462;28;20371;-78
2021/01/01 01:50:08;;;;;;;106.20;89.10;;;;;;;;;;5072360;28;20417;-78
2021/01/01 01:52:35;;;;;;;131.17;106.20;;;;;;;;;;5072150;28;20444;-78
2021/01/01 01:55:01;;;;;;;128.18;105.53;;;;;;;;;;5072132;28;20913;-77
2021/01/01 01:57:27;;;;;;;121.40;100.35;;;;;;;;;;5072021;28;20846;-78
2021/01/01 01:59:55;;;;;;;121.30;99.72;;;;;;;;;;5070154;28;20881;-78
2021/01/01 02:02:22;;;;;;;117.30;95.88;;;;;;;;;;5071393;28;20384;-78
2021/01/01 02:04:48;;;;;;;106.70;87.20;;;;;;;;;;5062897;28;20400;-76
2021/01/01 02:07:14;;;;;;;100.07;84.03;;;;;;;;;;5079326;28;20426;-78
2021/01/01 02:09:40;;;;;;;101.50;85.78;;;;;;;;;;5062280;28;20902;-78
2021/01/01 02:12:07;;;;;;;106.85;87.82;;;;;;;;;;5065904;28;20359;-80
2021/01/01 02:14:33;;;;;;;110.87;90.60;;;;;;;;;;5068459;28;20388;-77
2021/01/01 02:16:59;;;;;;;97.70;80.80;;;;;;;;;;5089767;28;20361;-76
2021/01/01 02:19:25;;;;;;;109.30;88.40;;;;;;;;;;5070947;28;20364;-77
2021/01/01 02:21:58;;;;;;;104.57;87.37;;;;;;;;;;5090382;28;20962;-77
2021/01/01 02:24:24;;;;;;;104.82;84.90;;;;;;;;;;5072786;28;20894;-77
2021/01/01 02:26:50;;;;;;;99.90;81.80;;;;;;;;;;5090550;28;20712;-77
2021/01/01 02:29:16;;;;;;;95.30;78.47;;;;;;;;;;5090596;28;20360;-76
2021/01/01 02:31:42;;;;;;;92.00;78.55;;;;;;;;;;5072663;28;20377;-78
2021/01/01 02:34:08;;;;;;;92.35;77.63;;;;;;;;;;5090355;28;20359;-77
2021/01/01 02:36:34;;;;;;;87.82;74.05;;;;;;;;;;5072603;28;20364;-79
2021/01/01 02:39:00;;;;;;;96.63;77.83;;;;;;;;;;5072322;28;20367;-77
2021/01/01 02:41:26;;;;;;;92.35;76.35;;;;;;;;;;5090773;28;20357;-76
2021/01/01 02:43:52;;;;;;;89.07;75.68;;;;;;;;;;5090323;28;20446;-76
2021/01/01 02:46:18;;;;;;;87.78;73.18;;;;;;;;;;5090351;28;20372;-77
2021/01/01 02:48:44;;;;;;;88.80;73.38;;;;;;;;;;5072263;28;20907;-77
2021/01/01 02:51:10;;;;;;;80.22;68.72;;;;;;;;;;5072562;28;20866;-77
2021/01/01 02:53:36;;;;;;;95.82;81.90;;;;;;;;;;5072803;28;20360;-77
2021/01/01 02:56:03;;;;;;;96.78;79.18;;;;;;;;;;5072784;28;20368;-78
2021/01/01 02:58:29;;;;;;;90.55;75.72;;;;;;;;;;5073036;28;20364;-77
2021/01/01 03:00:55;;;;;;;93.28;77.85;;;;;;;;;;5089903;28;20375;-79
2021/01/01 03:03:21;;;;;;;94.97;79.15;;;;;;;;;;5071918;28;20393;-78
2021/01/01 03:05:47;;;;;;;109.70;87.55;;;;;;;;;;5071892;28;20873;-77
2021/01/01 03:08:13;;;;;;;104.28;86.65;;;;;;;;;;5072154;28;20451;-77
2021/01/01 03:10:39;;;;;;;96.03;80.60;;;;;;;;;;5071998;28;20468;-77
2021/01/01 03:13:05;;;;;;;99.43;81.43;;;;;;;;;;5073749;28;20375;-77
2021/01/01 03:15:31;;;;;;;105.57;85.50;;;;;;;;;;5075964;28;20854;-77
2021/01/01 03:17:57;;;;;;;106.53;86.18;;;;;;;;;;5093988;28;20467;-78
2021/01/01 03:20:23;;;;;;;107.93;87.45;;;;;;;;;;5094045;28;20401;-77
2021/01/01 03:22:49;;;;;;;99.75;81.22;;;;;;;;;;5093722;28;20352;-77
2021/01/01 03:25:15;;;;;;;97.07;81.07;;;;;;;;;;5075648;28;20396;-77
2021/01/01 03:27:41;;;;;;;103.20;81.13;;;;;;;;;;5075914;28;20606;-77
2021/01/01 03:30:09;;;;;;;95.47;78.25;;;;;;;;;;5093655;28;20885;-77
2021/01/01 03:32:35;;;;;;;91.18;75.78;;;;;;;;;;5093768;28;20363;-77
2021/01/01 03:35:01;;;;;;;91.25;76.60;;;;;;;;;;5094143;28;20417;-77
2021/01/01 03:37:27;;;;;;;98.18;80.45;;;;;;;;;;5075649;28;20369;-78
2021/01/01 03:39:54;;;;;;;101.28;80.93;;;;;;;;;;5093416;28;20372;-78
2021/01/01 03:42:20;;;;;;;95.82;76.43;;;;;;;;;;5075204;28;20361;-77
2021/01/01 03:44:46;;;;;;;88.67;73.40;;;;;;;;;;5093383;28;20392;-77
2021/01/01 03:47:12;;;;;;;99.07;79.15;;;;;;;;;;5093604;28;20364;-77
2021/01/01 03:49:38;;;;;;;95.97;79.03;;;;;;;;;;5093340;28;20966;-77
2021/01/01 03:52:04;;;;;;;97.70;79.30;;;;;;;;;;5075120;28;20501;-78
2021/01/01 03:54:30;;;;;;;97.22;79.68;;;;;;;;;;5093358;28;20457;-78
2021/01/01 03:56:56;;;;;;;103.67;82.70;;;;;;;;;;5075283;28;20418;-77
2021/01/01 03:59:22;;;;;;;104.75;82.90;;;;;;;;;;5074946;28;20376;-77
2021/01/01 04:01:48;;;;;;;104.85;83.10;;;;;;;;;;5074980;28;20373;-77
2021/01/01 04:04:14;;;;;;;102.72;83.32;;;;;;;;;;5093126;28;20895;-79
2021/01/01 04:06:40;;;;;;;90.53;75.50;;;;;;;;;;5075016;28;20364;-77
2021/01/01 04:09:06;;;;;;;97.07;80.00;;;;;;;;;;5092983;28;20372;-78
2021/01/01 04:11:36;;;;;;;107.43;84.00;;;;;;;;;;5075166;28;20368;-78
2021/01/01 04:14:02;;;;;;;102.20;83.18;;;;;;;;;;5075329;28;20368;-78
2021/01/01 04:16:30;;;;;;;104.03;83.78;;;;;;;;;;5093251;28;20352;-78
2021/01/01 04:18:56;;;;;;;92.50;77.40;;;;;;;;;;5075099;28;20451;-78
2021/01/01 04:21:22;;;;;;;100.00;83.20;;;;;;;;;;5074710;28;20395;-78
2021/01/01 04:23:48;;;;;;;91.15;76.47;;;;;;;;;;5092477;28;20388;-77
2021/01/01 04:26:14;;;;;;;92.73;77.90;;;;;;;;;;5074004;28;20451;-77
2021/01/01 04:28:40;;;;;;;82.63;71.18;;;;;;;;;;5092389;28;20463;-78
2021/01/01 04:31:06;;;;;;;90.05;75.90;;;;;;;;;;5092786;28;20443;-77
2021/01/01 04:33:32;;;;;;;96.43;77.95;;;;;;;;;;5074121;28;20779;-78
2021/01/01 04:35:58;;;;;;;83.73;69.10;;;;;;;;;;5092271;28;20351;-77
2021/01/01 04:38:24;;;;;;;91.57;75.22;;;;;;;;;;5074264;28;20361;-77
2021/01/01 04:40:52;;;;;;;88.20;74.05;;;;;;;;;;5092309;28;20357;-77
2021/01/01 04:43:18;;;;;;;85.28;70.32;;;;;;;;;;5091987;28;20392;-77
2021/01/01 04:45:44;;;;;;;83.53;69.32;;;;;;;;;;5092494;28;20348;-77
2021/01/01 04:48:10;;;;;;;83.78;69.63;;;;;;;;;;5074526;28;20800;-77
2021/01/01 04:50:36;;;;;;;86.47;69.95;;;;;;;;;;5074016;28;20431;-78
2021/01/01 04:53:03;;;;;;;79.95;67.30;;;;;;;;;;5092054;28;20882;-77
2021/01/01 04:55:29;;;;;;;75.25;63.03;;;;;;;;;;5074124;28;20380;-78
2021/01/01 04:57:55;;;;;;;70.07;60.60;;;;;;;;;;5092154;28;20356;-80
2021/01/01 05:00:22;;;;;;;78.47;65.93;;;;;;;;;;5073572;28;20697;-77
2021/01/01 05:02:48;;;;;;;78.85;65.43;;;;;;;;;;5091826;28;20467;-77
2021/01/01 05:05:14;;;;;;;86.15;68.65;;;;;;;;;;5091509;28;20538;-77
2021/01/01 05:07:40;;;;;;;74.75;61.90;;;;;;;;;;5091700;28;20356;-77
2021/01/01 05:10:06;;;;;;;74.15;61.67;;;;;;;;;;5091581;28;20356;-78
2021/01/01 05:12:33;;;;;;;80.70;67.65;;;;;;;;;;5073597;28;20372;-77
2021/01/01 05:14:59;;;;;;;82.50;66.68;;;;;;;;;;5091830;28;20933;-77
2021/01/01 05:17:35;;;;;;;86.50;67.53;;;;;;;;;;5073507;28;20400;-77
2021/01/01 05:20:10;;;;;;;80.55;65.78;;;;;;;;;;5073132;28;20360;-77
2021/01/01 05:22:37;;;;;;;80.93;65.30;;;;;;;;;;5091579;28;20464;-78
2021/01/01 05:25:04;;;;;;;75.03;62.55;;;;;;;;;;5073543;28;20513;-77
2021/01/01 05:27:34;;;;;;;70.07;58.87;;;;;;;;;;5073495;28;21086;-77
2021/01/01 05:30:00;;;;;;;86.97;69.60;;;;;;;;;;5073164;28;20388;-77
2021/01/01 05:32:28;;;;;;;76.70;64.57;;;;;;;;;;5073391;28;20411;-78
2021/01/01 05:34:54;;;;;;;69.97;59.38;;;;;;;;;;5073298;28;20380;-77
2021/01/01 05:37:32;;;;;;;77.40;63.17;;;;;;;;;;5072819;28;20403;-77
2021/01/01 05:40:08;;;;;;;71.53;60.25;;;;;;;;;;5072821;28;20368;-77
2021/01/01 05:42:38;;;;;;;75.32;60.33;;;;;;;;;;5091175;28;20359;-77
2021/01/01 05:45:17;;;;;;;72.60;60.65;;;;;;;;;;5091048;28;20403;-77
2021/01/01 05:48:02;;;;;;;80.20;64.75;;;;;;;;;;5072609;28;20455;-77
2021/01/01 05:50:28;;;;;;;73.73;61.53;;;;;;;;;;5090684;28;20485;-78
2021/01/01 05:53:14;;;;;;;66.82;56.88;;;;;;;;;;5072685;28;20400;-78
2021/01/01 05:55:40;;;;;;;70.60;59.20;;;;;;;;;;5072522;28;20456;-77
2021/01/01 05:58:25;;;;;;;72.20;60.53;;;;;;;;;;5072550;28;20353;-77
2021/01/01 06:00:56;;;;;;;66.15;55.85;;;;;;;;;;5090513;28;20785;-78
2021/01/01 06:03:23;;;;;;;70.03;58.47;;;;;;;;;;5072709;28;20811;-77
2021/01/01 06:05:52;;;;;;;68.97;58.25;;;;;;;;;;5072187;28;21409;-78
2021/01/01 06:08:19;;;;;;;73.15;60.50;;;;;;;;;;5091464;28;20429;-78
2021/01/01 06:10:48;;;;;;;72.82;59.20;;;;;;;;;;5090488;28;20368;-78
2021/01/01 06:13:18;;;;;;;73.93;60.13;;;;;;;;;;5090946;28;20352;-78
2021/01/01 06:15:48;;;;;;;67.03;56.38;;;;;;;;;;5072663;28;20383;-78
2021/01/01 06:18:15;;;;;;;64.22;54.25;;;;;;;;;;5091447;28;20356;-78
2021/01/01 06:20:42;;;;;;;65.20;56.53;;;;;;;;;;5072417;28;20369;-78
2021/01/01 06:23:13;;;;;;;71.68;58.10;;;;;;;;;;5072597;28;20363;-79
2021/01/01 06:25:39;;;;;;;65.93;55.65;;;;;;;;;;5072979;28;20387;-77
2021/01/01 06:28:05;;;;;;;68.63;58.53;;;;;;;;;;5072807;28;20839;-78
2021/01/01 06:30:33;;;;;;;62.20;53.53;;;;;;;;;;5091357;28;20361;-77
2021/01/01 06:33:00;;;;;;;75.77;61.70;;;;;;;;;;5076835;28;20369;-79
2021/01/01 06:35:29;;;;;;;72.57;58.15;;;;;;;;;;5093027;28;20407;-77
2021/01/01 06:37:56;;;;;;;68.53;56.67;;;;;;;;;;5076776;28;20451;-77
2021/01/01 06:40:22;;;;;;;74.88;58.72;;;;;;;;;;5077250;28;20372;-77
2021/01/01 06:42:57;;;;;;;75.85;61.17;;;;;;;;;;5078469;28;20380;-77
2021/01/01 06:45:59;;;;;;;70.35;58.08;;;;;;;;;;5080783;28;20504;-77
2021/01/01 06:48:25;;;;;;;68.85;57.42;;;;;;;;;;5076071;28;20920;-77
2021/01/01 06:50:51;;;;;;;76.00;60.83;;;;;;;;;;5076767;28;20393;-78
2021/01/01 06:53:18;;;;;;;78.83;63.20;;;;;;;;;;5076854;28;20771;-78
2021/01/01 06:55:48;;;;;;;73.93;59.17;;;;;;;;;;5076538;28;20372;-78
2021/01/01 06:58:15;;;;;;;68.40;56.47;;;;;;;;;;5076431;28;20440;-77
2021/01/01 07:00:47;;;;;;;70.63;58.00;;;;;;;;;;5076155;28;20367;-77
2021/01/01 07:03:40;;;;;;;67.70;54.90;;;;;;;;;;5076169;28;20415;-77
2021/01/01 07:06:06;;;;;;;72.32;58.15;;;;;;;;;;5090861;28;20556;-77
2021/01/01 07:11:13;;;;;;;67.18;56.25;;;;;;;;;;5093787;28;20357;-77
2021/01/01 07:13:46;;;;;;;71.03;57.40;;;;;;;;;;5094080;28;20360;-78
2021/01/01 07:16:12;;;;;;;63.60;54.22;;;;;;;;;;5075922;28;20423;-78
2021/01/01 07:18:38;;;;;;;67.77;55.57;;;;;;;;;;5075860;28;20822;-77
2021/01/01 07:21:05;;;;;;;60.25;51.42;;;;;;;;;;5094019;28;20360;-77
2021/01/01 07:23:32;;;;;;;58.35;50.22;;;;;;;;;;5093790;28;20395;-77
2021/01/01 07:25:58;;;;;;;59.25;50.63;;;;;;;;;;5093539;28;20365;-77
2021/01/01 07:28:25;;;;;;;65.53;54.90;;;;;;;;;;5075779;28;20383;-78
2021/01/01 07:30:51;;;;;;;63.92;53.78;;;;;;;;;;5075266;28;20357;-78
2021/01/01 07:33:21;;;;;;;57.40;50.30;;;;;;;;;;5075734;28;20851;-78
2021/01/01 07:35:55;;;;;;;62.13;53.22;;;;;;;;;;5075662;28;20402;-79
2021/01/01 07:38:22;;;;;;;57.50;48.77;;;;;;;;;;5093685;28;20435;-78
2021/01/01 07:40:49;;;;;;;57.13;48.17;;;;;;;;;;5093396;28;20388;-78
2021/01/01 07:43:15;;;;;;;63.45;53.42;;;;;;;;;;5093610;28;20769;-78
2021/01/01 07:45:41;;;;;;;63.97;52.88;;;;;;;;;;5075869;28;20369;-78
2021/01/01 07:48:08;;;;;;;71.67;56.57;;;;;;;;;;5093507;28;20735;-78
2021/01/01 07:50:34;;;;;;;72.85;59.33;;;;;;;;;;5093531;28;20435;-78
2021/01/01 07:53:01;;;;;;;65.95;55.95;;;;;;;;;;5093328;28;20356;-78
2021/01/01 07:55:27;;;;;;;74.72;61.80;;;;;;;;;;5075689;28;20375;-79
2021/01/01 07:57:59;;;;;;;67.03;54.00;;;;;;;;;;5094054;28;20365;-79
2021/01/01 08:00:28;;;;;;;65.40;55.15;;;;;;;;;;5092544;28;20379;-78
2021/01/01 08:02:55;;;;;;;59.50;49.80;;;;;;;;;;5075433;28;20372;-78
2021/01/01 08:05:21;;;;;;;55.67;46.53;;;;;;;;;;5075029;28;20822;-79
2021/01/01 08:07:47;;;;;;;59.33;50.58;;;;;;;;;;5093397;28;20486;-77
2021/01/01 08:10:13;;;;;;;58.58;49.88;;;;;;;;;;5093620;28;20418;-78
2021/01/01 08:12:48;;;;;;;60.20;48.93;;;;;;;;;;5074966;28;20456;-77
2021/01/01 08:15:26;;;;;;;55.22;47.60;;;;;;;;;;5075405;28;20414;-77
2021/01/01 08:17:52;;;;;;;53.60;46.20;;;;;;;;;;5074847;28;20361;-77
2021/01/01 08:20:18;;;;;;;58.17;49.50;;;;;;;;;;5075273;28;20375;-77
2021/01/01 08:22:46;;;;;;;59.42;49.72;;;;;;;;;;5074902;28;20438;-78
2021/01/01 08:25:12;;;;;;;50.58;43.25;;;;;;;;;;5092947;28;20388;-78
2021/01/01 08:27:39;;;;;;;53.40;45.50;;;;;;;;;;5093432;28;20373;-79
2021/01/01 08:30:06;;;;;;;52.33;43.58;;;;;;;;;;5092471;28;20862;-77
2021/01/01 08:32:33;;;;;;;53.15;45.90;;;;;;;;;;5093183;28;20396;-77
2021/01/01 08:34:59;;;;;;;49.80;44.33;;;;;;;;;;5074769;28;20373;-77
2021/01/01 08:37:27;;;;;;;57.43;47.77;;;;;;;;;;5074411;28;20357;-78
2021/01/01 08:40:07;;;;;;;47.37;41.47;;;;;;;;;;5074117;28;20376;-77
2021/01/01 08:42:34;;;;;;;55.70;47.10;;;;;;;;;;5074321;28;20384;-78
2021/01/01 08:45:01;;;;;;;51.90;44.63;;;;;;;;;;5092429;28;20526;-78
2021/01/01 08:47:40;;;;;;;49.33;41.38;;;;;;;;;;5074571;28;20372;-78
2021/01/01 08:50:19;;;;;;;43.67;38.90;;;;;;;;;;5074272;28;20786;-78
2021/01/01 08:52:46;;;;;;;44.85;38.83;;;;;;;;;;5074336;28;20379;-80
2021/01/01 08:55:12;;;;;;;45.22;39.17;;;;;;;;;;5074372;28;20460;-80
2021/01/01 08:57:38;;;;;;;45.77;38.87;;;;;;;;;;5092959;28;20425;-78
2021/01/01 09:00:05;;;;;;;42.38;36.60;;;;;;;;;;5074133;28;20494;-80
2021/01/01 09:02:33;;;;;;;43.30;36.92;;;;;;;;;;5069155;28;20407;-77
2021/01/01 09:04:59;;;;;;;45.47;38.30;;;;;;;;;;5092174;28;20408;-79
2021/01/01 09:07:25;;;;;;;43.85;37.63;;;;;;;;;;5091883;28;20838;-78
2021/01/01 09:09:52;;;;;;;44.03;37.83;;;;;;;;;;5073628;28;20763;-79
2021/01/01 09:12:19;;;;;;;41.97;36.40;;;;;;;;;;5073568;28;20400;-77
2021/01/01 09:14:46;;;;;;;46.72;38.55;;;;;;;;;;5091941;28;20368;-77
2021/01/01 09:17:12;;;;;;;48.30;39.38;;;;;;;;;;5073735;28;20369;-78
2021/01/01 09:19:38;;;;;;;48.55;39.53;;;;;;;;;;5091491;28;20349;-78
2021/01/01 09:22:17;;;;;;;46.07;39.43;;;;;;;;;;5073450;28;20361;-78
2021/01/01 09:24:44;;;;;;;48.08;38.67;;;;;;;;;;5073379;28;20944;-77
2021/01/01 09:27:10;;;;;;;43.65;36.72;;;;;;;;;;5070094;28;20402;-77
2021/01/01 09:29:36;;;;;;;44.47;37.00;;;;;;;;;;5065848;28;20373;-86
2021/01/01 09:32:05;;;;;;;43.42;37.20;;;;;;;;;;5078335;28;20404;-79
2021/01/01 09:34:31;;;;;;;39.93;35.57;;;;;;;;;;5080262;28;20373;-78
2021/01/01 09:36:57;;;;;;;42.80;36.42;;;;;;;;;;5079154;28;20378;-78
2021/01/01 09:39:23;;;;;;;42.53;37.08;;;;;;;;;;5083992;28;20366;-77
2021/01/01 09:41:50;;;;;;;46.03;37.58;;;;;;;;;;5077619;28;20372;-81
2021/01/01 09:44:16;;;;;;;44.83;36.90;;;;;;;;;;5066115;28;20407;-77
2021/01/01 09:46:42;;;;;;;45.75;37.80;;;;;;;;;;5075242;28;20459;-78
2021/01/01 09:49:08;;;;;;;42.45;35.88;;;;;;;;;;5068511;28;20371;-78
2021/01/01 09:51:34;;;;;;;45.20;37.07;;;;;;;;;;5068119;28;20370;-77
2021/01/01 09:54:00;;;;;;;40.40;35.75;;;;;;;;;;5071199;28;20922;-80
2021/01/01 09:56:36;;;;;;;42.88;36.50;;;;;;;;;;5073419;28;20374;-82
2021/01/01 09:59:02;;;;;;;37.30;33.23;;;;;;;;;;5085738;28;20487;-78
2021/01/01 10:01:32;;;;;;;42.72;35.60;;;;;;;;;;5098013;28;20379;-80
2021/01/01 10:03:58;;;;;;;42.30;35.47;;;;;;;;;;5073712;28;20388;-81
2021/01/01 10:06:24;;;;;;;40.65;34.13;;;;;;;;;;5079344;28;20445;-79
2021/01/01 10:08:50;;;;;;;42.38;36.05;;;;;;;;;;5089958;28;20454;-80
2021/01/01 10:11:17;;;;;;;39.28;33.35;;;;;;;;;;5080272;28;20374;-82
2021/01/01 10:13:43;;;;;;;40.77;34.07;;;;;;;;;;5072496;28;20380;-80
2021/01/01 10:16:10;;;;;;;42.25;35.30;;;;;;;;;;5070536;28;20380;-78
2021/01/01 10:18:36;;;;;;;41.65;35.95;;;;;;;;;;5079143;28;20450;-80
2021/01/01 10:21:02;;;;;;;42.28;35.55;;;;;;;;;;5072253;28;20612;-83
2021/01/01 10:23:29;;;;;;;43.25;36.35;;;;;;;;;;5077385;28;20387;-77
2021/01/01 10:25:55;;;;;;;48.70;39.03;;;;;;;;;;5086477;28;20436;-77
2021/01/01 10:28:21;;;;;;;49.20;39.53;;;;;;;;;;5074672;28;20734;-77
2021/01/01 10:30:47;;;;;;;43.35;36.35;;;;;;;;;;5069188;28;20384;-79
2021/01/01 10:33:13;;;;;;;45.53;37.85;;;;;;;;;;5067625;28;20387;-81
2021/01/01 10:35:39;;;;;;;41.90;34.58;;;;;;;;;;5090882;28;21103;-79
2021/01/01 10:38:06;;;;;;;38.40;33.70;;;;;;;;;;5088877;28;20413;-78
2021/01/01 10:40:32;;;;;;;45.47;37.27;;;;;;;;;;5068965;28;20475;-79
2021/01/01 10:42:58;;;;;;;40.65;34.42;;;;;;;;;;5089898;28;20862;-78
2021/01/01 10:45:24;;;;;;;40.92;35.03;;;;;;;;;;5089743;28;20419;-80
2021/01/01 10:47:50;;;;;;;42.78;34.22;;;;;;;;;;5069074;28;20860;-78
2021/01/01 10:50:16;;;;;;;40.88;34.83;;;;;;;;;;5071631;28;20398;-78
2021/01/01 10:52:43;;;;;;;42.13;35.55;;;;;;;;;;5069977;28;20450;-78
2021/01/01 10:55:09;;;;;;;39.83;35.03;;;;;;;;;;5069164;28;20462;-78
2021/01/01 10:57:35;;;;;;;37.42;32.45;;;;;;;;;;5068185;28;20382;-78
2021/01/01 11:00:01;;;;;;;37.55;32.17;;;;;;;;;;5071312;28;20371;-77
2021/01/01 11:02:27;;;;;;;37.28;30.25;;;;;;;;;;5068369;28;20384;-78
2021/01/01 11:04:53;;;;;;;39.47;32.05;;;;;;;;;;5070014;28;20431;-79
2021/01/01 11:07:19;;;;;;;39.03;32.22;;;;;;;;;;5087885;28;20410;-77
2021/01/01 11:09:45;;;;;;;35.83;31.02;;;;;;;;;;5069193;28;20785;-79
2021/01/01 11:12:11;;;;;;;36.33;30.40;;;;;;;;;;5087281;28;20369;-78
2021/01/01 12:26:04;;;;;;;26.27;23.17;;;;;;;;;;5068866;28;20389;-83
2021/01/01 12:28:30;;;;;;;28.07;24.03;;;;;;;;;;5050381;28;20382;-83
2021/01/01 12:30:58;;;;;;;26.55;23.75;;;;;;;;;;5071457;28;20368;-82
2021/01/01 12:33:24;;;;;;;26.60;23.55;;;;;;;;;;5088811;28;20357;-81
2021/01/01 12:35:51;;;;;;;29.33;25.50;;;;;;;;;;5089065;28;20356;-81
2021/01/01 12:38:17;;;;;;;27.93;24.13;;;;;;;;;;5069715;28;20377;-81
2021/01/01 12:40:44;;;;;;;29.52;24.95;;;;;;;;;;5088921;28;20383;-81
2021/01/01 12:43:10;;;;;;;25.55;22.75;;;;;;;;;;5089418;28;20361;-80
2021/01/01 12:45:36;;;;;;;30.07;25.50;;;;;;;;;;5088707;28;20833;-81
2021/01/01 12:48:02;;;;;;;30.02;24.33;;;;;;;;;;5089248;28;20369;-81
2021/01/01 12:50:28;;;;;;;29.48;24.95;;;;;;;;;;5070300;28;20376;-81
2021/01/01 12:52:55;;;;;;;30.02;25.65;;;;;;;;;;5088891;28;20375;-82
2021/01/01 12:55:22;;;;;;;28.52;24.40;;;;;;;;;;5064646;28;20390;-81
2021/01/01 12:57:48;;;;;;;32.72;25.73;;;;;;;;;;5050196;28;20374;-83
2021/01/01 13:00:14;;;;;;;29.52;24.88;;;;;;;;;;5050718;28;20374;-80
2021/01/01 13:02:40;;;;;;;29.45;25.33;;;;;;;;;;5067661;28;20376;-84
2021/01/01 13:05:07;;;;;;;28.33;24.27;;;;;;;;;;5070674;28;20495;-84
2021/01/01 13:07:33;;;;;;;30.38;26.60;;;;;;;;;;5089153;28;20372;-81
2021/01/01 13:09:59;;;;;;;29.77;26.00;;;;;;;;;;5089375;28;20521;-81
2021/01/01 13:12:26;;;;;;;28.25;24.48;;;;;;;;;;5070073;28;20372;-80
2021/01/01 13:14:54;;;;;;;30.30;25.25;;;;;;;;;;5069734;28;20372;-82
2021/01/01 13:17:22;;;;;;;29.00;24.13;;;;;;;;;;5086862;28;20707;-79
2021/01/01 13:19:48;;;;;;;28.83;23.33;;;;;;;;;;5070650;28;20412;-82
2021/01/01 13:22:14;;;;;;;26.85;23.08;;;;;;;;;;5088845;28;20414;-82
2021/01/01 13:24:41;;;;;;;26.20;23.33;;;;;;;;;;5088681;28;20476;-82
2021/01/01 13:27:07;;;;;;;25.80;22.95;;;;;;;;;;5089013;28;20421;-83
2021/01/01 13:29:34;;;;;;;28.50;24.33;;;;;;;;;;5070406;28;21255;-82
2021/01/01 13:32:04;;;;;;;26.45;23.50;;;;;;;;;;5088866;28;20363;-82
2021/01/01 13:34:31;;;;;;;30.25;24.92;;;;;;;;;;5071012;28;20431;-81
2021/01/01 13:36:57;;;;;;;29.27;25.73;;;;;;;;;;5070446;28;20403;-82
2021/01/01 13:39:25;;;;;;;28.17;25.10;;;;;;;;;;5088495;28;20414;-81
2021/01/01 13:41:52;;;;;;;29.48;26.13;;;;;;;;;;5070379;28;20372;-82
2021/01/01 13:44:18;;;;;;;31.30;27.80;;;;;;;;;;5089710;28;20459;-90
2021/01/01 13:46:45;;;;;;;33.67;29.98;;;;;;;;;;5087733;28;20936;-84
2021/01/01 13:49:11;;;;;;;36.45;31.25;;;;;;;;;;5087296;28;20383;-83
2021/01/01 13:51:38;;;;;;;39.43;33.33;;;;;;;;;;5088818;28;20437;-82
2021/01/01 13:54:05;;;;;;;38.63;34.42;;;;;;;;;;5069664;28;20368;-83
2021/01/01 13:56:31;;;;;;;38.20;32.73;;;;;;;;;;5069266;28;20475;-80
2021/01/01 13:58:58;;;;;;;37.63;31.80;;;;;;;;;;5086910;28;20361;-86
2021/01/01 14:01:24;;;;;;;39.00;33.95;;;;;;;;;;5069276;28;20760;-82
2021/01/01 14:03:52;;;;;;;36.28;30.92;;;;;;;;;;5068492;28;20484;-84
2021/01/01 14:06:19;;;;;;;39.08;33.75;;;;;;;;;;5068923;28;20399;-82
2021/01/01 14:08:45;;;;;;;36.13;31.10;;;;;;;;;;5070504;28;20403;-82
2021/01/01 14:11:12;;;;;;;37.03;31.38;;;;;;;;;;5084516;28;20398;-84
2021/01/01 14:13:41;;;;;;;35.67;30.13;;;;;;;;;;5081434;28;20373;-81
2021/01/01 14:16:08;;;;;;;29.27;24.63;;;;;;;;;;5066579;28;20402;-81
2021/01/01 14:18:35;;;;;;;26.98;24.05;;;;;;;;;;5057150;28;20765;-88
2021/01/01 14:21:00;;;;;;;31.27;27.05;;;;;;;;;;5068015;28;20389;-81
2021/01/01 14:23:27;;;;;;;32.70;27.10;;;;;;;;;;5079200;28;20391;-81
2021/01/01 14:25:52;;;;;;;27.30;24.35;;;;;;;;;;5061267;28;20374;-81
2021/01/01 14:28:18;;;;;;;30.30;26.27;;;;;;;;;;5061681;28;20378;-81
2021/01/01 14:30:44;;;;;;;30.60;25.73;;;;;;;;;;5081223;28;20379;-81
2021/01/01 14:33:10;;;;;;;29.70;25.35;;;;;;;;;;5088950;28;20689;-82
2021/01/01 14:35:37;;;;;;;29.65;25.33;;;;;;;;;;5088576;28;20372;-81
2021/01/01 14:38:06;;;;;;;33.38;27.05;;;;;;;;;;5078769;28;20378;-81
2021/01/01 14:40:32;;;;;;;30.60;26.58;;;;;;;;;;5078845;28;20372;-81
2021/01/01 14:42:58;;;;;;;35.03;29.35;;;;;;;;;;5077343;28;20400;-81
2021/01/01 14:45:24;;;;;;;35.28;29.80;;;;;;;;;;5052734;28;20579;-81
2021/01/01 14:47:50;;;;;;;37.57;31.93;;;;;;;;;;5070814;28;20504;-81
2021/01/01 14:50:16;;;;;;;37.53;31.40;;;;;;;;;;5084828;28;20410;-80
2021/01/01 14:52:42;;;;;;;35.55;30.70;;;;;;;;;;5089058;28;20473;-81
2021/01/01 14:55:09;;;;;;;39.05;32.20;;;;;;;;;;5058108;28;20741;-81
2021/01/01 14:57:42;;;;;;;36.47;30.63;;;;;;;;;;5061416;28;20364;-81
2021/01/01 15:00:08;;;;;;;34.13;30.02;;;;;;;;;;5071275;28;20376;-81
2021/01/01 15:02:34;;;;;;;34.10;28.98;;;;;;;;;;5088064;28;20380;-81
2021/01/01 15:05:01;;;;;;;32.97;28.45;;;;;;;;;;5076832;28;20879;-81
2021/01/01 15:07:27;;;;;;;31.53;27.33;;;;;;;;;;5068623;28;20451;-82
2021/01/01 15:09:53;;;;;;;34.50;28.70;;;;;;;;;;5062096;28;20386;-81
2021/01/01 15:12:19;;;;;;;33.65;27.83;;;;;;;;;;5074078;28;20445;-81
2021/01/01 15:14:46;;;;;;;31.92;27.45;;;;;;;;;;5055941;28;20437;-81
2021/01/01 15:17:12;;;;;;;29.08;24.92;;;;;;;;;;5069966;28;20364;-83
2021/01/01 15:19:38;;;;;;;29.08;25.35;;;;;;;;;;5073534;28;20364;-81
2021/01/01 15:22:04;;;;;;;28.58;24.65;;;;;;;;;;5067925;28;20376;-81
2021/01/01 15:24:30;;;;;;;30.10;24.45;;;;;;;;;;5076718;28;20427;-81
2021/01/01 15:26:56;;;;;;;30.50;25.17;;;;;;;;;;5077694;28;20458;-81
2021/01/01 15:29:22;;;;;;;30.70;26.52;;;;;;;;;;5093526;28;20453;-81